createdAt,value
2018-03-18T00:02:02.340Z,99.90
2018-03-18T00:04:29.415Z,99.90
2018-03-18T00:06:56.938Z,99.90
2018-03-18T00:09:24.007Z,99.90
2018-03-18T00:11:51.115Z,99.90
2018-03-18T00:14:18.146Z,99.90
2018-03-18T00:19:25.038Z,99.90
2018-03-18T00:21:52.085Z,99.90
2018-03-18T00:24:20.031Z,99.90
2018-03-18T00:26:47.101Z,99.40
2018-03-18T00:29:14.141Z,99.70
2018-03-18T00:31:41.163Z,99.90
2018-03-18T00:34:08.250Z,99.90
2018-03-18T00:36:35.264Z,99.90
2018-03-18T00:39:04.163Z,99.90
2018-03-18T00:41:31.244Z,99.90
2018-03-18T00:46:25.841Z,99.90
2018-03-18T00:48:52.926Z,99.90
2018-03-18T00:51:31.839Z,99.90
2018-03-18T00:54:04.766Z,99.90
2018-03-18T00:56:31.792Z,99.80
2018-03-18T00:58:58.819Z,99.10
2018-03-18T01:04:06.824Z,97.50
2018-03-18T01:06:33.894Z,97.70
2018-03-18T01:09:00.920Z,97.80
2018-03-18T01:11:28.412Z,98.10
2018-03-18T01:13:57.704Z,97.80
2018-03-18T01:18:49.971Z,98.60
2018-03-18T01:21:17.045Z,98.90
2018-03-18T01:23:44.068Z,99.00
2018-03-18T01:26:11.091Z,99.30
2018-03-18T01:28:38.173Z,99.30
2018-03-18T01:31:05.190Z,99.90
2018-03-18T01:33:33.036Z,99.90
2018-03-18T01:36:00.113Z,99.70
2018-03-18T01:38:27.154Z,99.10
2018-03-18T01:40:54.173Z,99.90
2018-03-18T01:43:21.244Z,99.90
2018-03-18T01:45:48.285Z,99.90
2018-03-18T01:48:15.310Z,99.90
2018-03-18T01:50:42.386Z,99.90
2018-03-18T01:53:21.158Z,99.90
2018-03-18T01:55:48.239Z,99.90
2018-03-18T01:58:15.255Z,99.90
2018-03-18T02:00:42.274Z,99.90
2018-03-18T02:03:09.360Z,99.90
2018-03-18T02:05:36.389Z,99.90
2018-03-18T02:08:03.443Z,99.90
2018-03-18T02:10:31.498Z,99.90
2018-03-18T02:12:58.509Z,99.90
2018-03-18T02:15:25.533Z,99.90
2018-03-18T02:17:52.616Z,99.90
2018-03-18T02:20:19.627Z,99.90
2018-03-18T02:22:46.652Z,99.90
2018-03-18T02:25:14.634Z,99.90
2018-03-18T02:30:20.233Z,99.90
2018-03-18T02:32:47.261Z,99.90
2018-03-18T02:35:14.293Z,99.80
2018-03-18T02:37:41.358Z,99.90
2018-03-18T02:40:08.386Z,99.90
2018-03-18T02:42:35.403Z,99.90
2018-03-18T02:45:02.463Z,99.90
2018-03-18T02:47:29.495Z,99.80
2018-03-18T02:49:56.524Z,99.90
2018-03-18T02:52:23.587Z,99.90
2018-03-18T02:54:51.839Z,99.90
2018-03-18T02:57:18.864Z,99.90
2018-03-18T02:59:45.948Z,99.90
2018-03-18T03:04:40.921Z,99.60
2018-03-18T03:07:08.001Z,99.90
2018-03-18T03:12:02.153Z,99.90
2018-03-18T03:14:29.242Z,99.90
2018-03-18T03:16:56.268Z,99.90
2018-03-18T03:19:23.281Z,99.90
2018-03-18T03:21:50.372Z,99.80
2018-03-18T03:24:17.394Z,99.90
2018-03-18T03:29:25.990Z,98.90
2018-03-18T03:31:53.001Z,99.90
2018-03-18T03:36:47.175Z,99.90
2018-03-18T03:39:14.229Z,99.90
2018-03-18T03:41:41.237Z,99.90
2018-03-18T03:44:08.338Z,99.90
2018-03-18T03:46:36.182Z,99.90
2018-03-18T03:49:03.202Z,99.90
2018-03-18T03:51:30.252Z,99.90
2018-03-18T03:53:57.266Z,99.90
2018-03-18T03:56:24.312Z,99.90
2018-03-18T03:58:51.384Z,99.90
2018-03-18T04:01:18.406Z,99.90
2018-03-18T04:03:45.445Z,99.90
2018-03-18T04:06:12.523Z,99.90
2018-03-18T04:08:39.542Z,99.90
2018-03-18T04:11:06.564Z,99.90
2018-03-18T04:13:34.607Z,99.90
2018-03-18T04:16:01.622Z,99.90
2018-03-18T04:18:28.646Z,99.70
2018-03-18T04:20:55.718Z,99.90
2018-03-18T04:23:22.732Z,99.80
2018-03-18T04:25:49.822Z,99.90
2018-03-18T04:28:16.911Z,99.80
2018-03-18T04:30:44.882Z,99.90
2018-03-18T04:33:12.858Z,99.90
2018-03-18T04:35:39.929Z,99.50
2018-03-18T04:38:06.954Z,99.70
2018-03-18T04:40:33.996Z,99.90
2018-03-18T04:43:02.827Z,99.90
2018-03-18T04:45:29.839Z,99.90
2018-03-18T04:47:56.866Z,99.70
2018-03-18T04:50:23.922Z,99.50
2018-03-18T04:55:29.489Z,99.80
2018-03-18T04:57:56.529Z,99.60
2018-03-18T05:00:23.527Z,99.40
2018-03-18T05:02:50.603Z,99.50
2018-03-18T05:05:17.617Z,99.80
2018-03-18T05:07:44.639Z,99.60
2018-03-18T05:10:11.703Z,99.90
2018-03-18T05:12:39.442Z,99.90
2018-03-18T05:15:06.464Z,99.90
2018-03-18T05:17:33.537Z,99.90
2018-03-18T05:20:00.561Z,99.60
2018-03-18T05:22:27.585Z,99.30
2018-03-18T05:24:54.650Z,99.40
2018-03-18T05:27:21.673Z,99.50
2018-03-18T05:29:48.709Z,99.80
2018-03-18T05:32:15.792Z,99.50
2018-03-18T05:34:42.801Z,99.20
2018-03-18T05:37:09.827Z,99.90
2018-03-18T05:39:39.877Z,99.60
2018-03-18T05:42:06.920Z,99.30
2018-03-18T05:47:01.111Z,99.90
2018-03-18T05:49:28.128Z,99.90
2018-03-18T05:51:55.161Z,99.90
2018-03-18T05:54:22.217Z,99.90
2018-03-18T05:56:49.236Z,99.90
2018-03-18T05:59:16.256Z,99.60
2018-03-18T06:01:43.333Z,99.20
2018-03-18T06:04:10.358Z,98.20
2018-03-18T06:06:38.193Z,99.70
2018-03-18T06:09:05.712Z,99.90
2018-03-18T06:11:32.736Z,99.90
2018-03-18T06:13:59.754Z,99.90
2018-03-18T06:16:26.839Z,99.60
2018-03-18T06:21:32.386Z,99.50
2018-03-18T06:23:59.419Z,98.80
2018-03-18T06:26:26.445Z,98.40
2018-03-18T06:28:53.520Z,97.60
2018-03-18T06:31:20.552Z,98.40
2018-03-18T06:33:48.428Z,98.80
2018-03-18T06:36:16.441Z,98.30
2018-03-18T06:38:43.460Z,96.80
2018-03-18T06:41:10.495Z,98.20
2018-03-18T06:43:37.556Z,98.00
2018-03-18T06:46:04.583Z,98.40
2018-03-18T06:48:32.562Z,97.90
2018-03-18T06:50:59.629Z,98.10
2018-03-18T06:53:26.664Z,98.30
2018-03-18T06:55:53.679Z,98.30
2018-03-18T06:58:20.756Z,98.40
2018-03-18T07:00:49.728Z,98.20
2018-03-18T07:03:16.761Z,98.70
2018-03-18T07:05:43.829Z,98.40
2018-03-18T07:08:12.059Z,98.00
2018-03-18T07:10:37.872Z,98.20
2018-03-18T07:13:05.122Z,98.60
2018-03-18T07:15:32.281Z,97.60
2018-03-18T07:17:59.285Z,97.40
2018-03-18T07:20:26.350Z,98.30
2018-03-18T07:22:56.363Z,97.50
2018-03-18T07:25:23.388Z,97.50
2018-03-18T07:27:52.030Z,98.60
2018-03-18T07:30:19.022Z,97.50
2018-03-18T07:32:46.139Z,98.80
2018-03-18T07:35:13.205Z,98.30
2018-03-18T07:37:47.251Z,97.50
2018-03-18T07:40:10.290Z,98.60
2018-03-18T07:45:16.134Z,97.50
2018-03-18T07:47:43.358Z,97.00
2018-03-18T07:50:10.369Z,97.20
2018-03-18T07:52:37.387Z,96.30
2018-03-18T07:55:04.481Z,97.00
2018-03-18T07:57:31.472Z,94.80
2018-03-18T07:59:58.489Z,94.10
2018-03-18T08:02:25.555Z,94.50
2018-03-18T08:04:52.586Z,94.30
2018-03-18T08:07:19.597Z,94.60
2018-03-18T08:09:46.666Z,95.90
2018-03-18T08:12:13.690Z,94.20
2018-03-18T08:17:07.886Z,93.30
2018-03-18T08:19:34.899Z,89.70
2018-03-18T08:22:01.914Z,90.30
2018-03-18T08:24:28.976Z,91.70
2018-03-18T08:26:55.996Z,91.80
2018-03-18T08:29:23.026Z,92.00
2018-03-18T08:31:50.075Z,91.40
2018-03-18T08:34:17.093Z,89.80
2018-03-18T08:36:44.104Z,90.80
2018-03-18T08:39:11.188Z,90.40
2018-03-18T08:41:38.201Z,90.40
2018-03-18T08:44:05.213Z,89.10
2018-03-18T08:46:32.283Z,90.20
2018-03-18T08:48:59.297Z,90.30
2018-03-18T08:51:26.309Z,89.00
2018-03-18T08:53:53.648Z,88.40
2018-03-18T08:56:20.594Z,88.80
2018-03-18T08:58:47.610Z,88.90
2018-03-18T09:01:14.727Z,89.30
2018-03-18T09:03:41.696Z,86.70
2018-03-18T09:06:09.079Z,86.20
2018-03-18T09:08:36.152Z,84.30
2018-03-18T09:16:10.851Z,86.70
2018-03-18T09:18:37.882Z,89.30
2018-03-18T09:21:04.952Z,81.00
2018-03-18T09:23:32.138Z,85.30
2018-03-18T09:25:59.134Z,85.20
2018-03-18T09:28:29.547Z,83.60
2018-03-18T09:30:56.519Z,85.20
2018-03-18T09:33:23.588Z,87.00
2018-03-18T09:35:50.622Z,86.60
2018-03-18T09:38:17.777Z,86.00
2018-03-18T09:40:44.759Z,84.20
2018-03-18T09:43:11.830Z,85.20
2018-03-18T09:45:39.054Z,89.60
2018-03-18T09:48:06.132Z,87.30
2018-03-18T09:50:33.170Z,83.80
2018-03-18T09:53:00.195Z,83.00
2018-03-18T09:55:27.216Z,83.30
2018-03-18T09:57:54.323Z,82.40
2018-03-18T10:00:21.339Z,85.30
2018-03-18T10:02:48.354Z,83.70
2018-03-18T10:05:15.422Z,79.70
2018-03-18T10:07:42.439Z,81.40
2018-03-18T10:10:09.451Z,80.40
2018-03-18T10:12:36.988Z,77.70
2018-03-18T10:15:04.000Z,70.70
2018-03-18T10:17:31.016Z,71.50
2018-03-18T10:19:58.089Z,67.20
2018-03-18T10:22:25.131Z,68.00
2018-03-18T10:24:52.129Z,67.50
2018-03-18T10:27:19.192Z,64.60
2018-03-18T10:29:46.223Z,71.00
2018-03-18T10:32:13.249Z,67.10
2018-03-18T10:37:19.216Z,67.70
2018-03-18T10:39:46.287Z,64.70
2018-03-18T10:42:13.315Z,65.30
2018-03-18T10:44:40.338Z,59.10
2018-03-18T10:47:07.471Z,60.20
2018-03-18T10:49:34.459Z,55.70
2018-03-18T10:52:01.491Z,49.40
2018-03-18T10:54:29.393Z,50.20
2018-03-18T10:56:56.426Z,54.40
2018-03-18T10:59:23.462Z,53.10
2018-03-18T11:01:50.550Z,51.10
2018-03-18T11:04:17.638Z,48.90
2018-03-18T11:06:44.676Z,54.90
2018-03-18T11:09:11.744Z,55.60
2018-03-18T11:14:05.872Z,52.70
2018-03-18T11:16:32.957Z,52.00
2018-03-18T11:18:59.960Z,53.00
2018-03-18T11:21:26.972Z,56.10
2018-03-18T11:23:54.047Z,55.90
2018-03-18T11:26:21.056Z,58.70
2018-03-18T11:28:48.324Z,55.80
2018-03-18T11:31:15.453Z,55.90
2018-03-18T11:36:09.604Z,58.90
2018-03-18T11:38:36.732Z,54.60
2018-03-18T11:43:31.780Z,53.80
2018-03-18T11:45:58.812Z,54.60
2018-03-18T11:48:26.649Z,53.30
2018-03-18T11:50:53.687Z,52.60
2018-03-18T11:53:20.795Z,48.30
2018-03-18T11:55:47.943Z,51.10
2018-03-18T12:03:22.754Z,47.70
2018-03-18T12:05:50.306Z,49.10
2018-03-18T12:08:29.183Z,49.20
2018-03-18T12:10:56.203Z,45.60
2018-03-18T12:13:23.232Z,46.50
2018-03-18T12:15:50.334Z,46.80
2018-03-18T12:18:17.362Z,43.40
2018-03-18T12:20:45.152Z,46.10
2018-03-18T12:23:12.231Z,45.60
2018-03-18T12:25:39.270Z,45.30
2018-03-18T12:28:06.860Z,45.90
2018-03-18T12:30:33.884Z,47.60
2018-03-18T12:33:00.914Z,48.70
2018-03-18T12:35:28.024Z,48.80
2018-03-18T12:37:56.270Z,49.60
2018-03-18T12:40:29.206Z,49.50
2018-03-18T12:43:08.204Z,49.60
2018-03-18T12:45:36.200Z,47.50
2018-03-18T12:48:03.291Z,49.20
2018-03-18T12:50:30.387Z,48.70
2018-03-18T12:52:57.460Z,48.10
2018-03-18T12:55:24.496Z,49.20
2018-03-18T12:57:51.617Z,49.70
2018-03-18T13:00:18.663Z,48.80
2018-03-18T13:02:45.728Z,46.40
2018-03-18T13:07:40.458Z,47.30
2018-03-18T13:10:07.527Z,45.40
2018-03-18T13:12:35.375Z,45.60
2018-03-18T13:15:02.457Z,47.70
2018-03-18T13:17:29.572Z,47.50
2018-03-18T13:19:56.706Z,48.50
2018-03-18T13:25:04.312Z,47.50
2018-03-18T13:27:31.341Z,46.80
2018-03-18T13:32:25.656Z,42.60
2018-03-18T13:34:52.693Z,44.80
2018-03-18T13:37:19.723Z,45.90
2018-03-18T13:39:46.801Z,46.10
2018-03-18T13:42:13.838Z,45.10
2018-03-18T13:44:40.876Z,45.30
2018-03-18T13:47:07.935Z,45.20
2018-03-18T13:49:34.963Z,45.70
2018-03-18T13:52:02.106Z,46.20
2018-03-18T13:54:29.254Z,45.60
2018-03-18T13:56:56.222Z,45.80
2018-03-18T13:59:23.250Z,44.30
2018-03-18T14:01:50.347Z,46.10
2018-03-18T14:04:17.366Z,46.50
2018-03-18T14:06:45.226Z,46.40
2018-03-18T14:09:12.308Z,46.80
2018-03-18T14:11:39.339Z,45.90
2018-03-18T14:14:06.398Z,46.00
2018-03-18T14:16:33.469Z,46.20
2018-03-18T14:19:00.513Z,46.60
2018-03-18T14:21:27.537Z,47.30
2018-03-18T14:23:54.614Z,48.70
2018-03-18T14:26:21.649Z,48.30
2018-03-18T14:28:48.673Z,49.20
2018-03-18T14:31:15.756Z,48.00
2018-03-18T14:33:42.782Z,49.00
2018-03-18T14:36:09.808Z,48.70
2018-03-18T14:38:36.891Z,48.60
2018-03-18T14:41:03.928Z,49.30
2018-03-18T14:43:31.508Z,50.20
2018-03-18T14:45:58.596Z,49.60
2018-03-18T14:51:07.173Z,50.00
2018-03-18T14:53:34.184Z,50.40
2018-03-18T14:56:01.210Z,51.00
2018-03-18T14:58:28.735Z,51.30
2018-03-18T15:00:55.763Z,51.60
2018-03-18T15:03:22.825Z,51.70
2018-03-18T15:05:49.916Z,51.60
2018-03-18T15:08:17.732Z,52.80
2018-03-18T15:10:44.781Z,53.10
2018-03-18T15:15:39.000Z,53.90
2018-03-18T15:18:06.071Z,54.20
2018-03-18T15:20:33.146Z,54.30
2018-03-18T15:23:00.212Z,55.20
2018-03-18T15:30:21.547Z,55.70
2018-03-18T15:32:48.596Z,56.00
2018-03-18T15:35:15.733Z,55.50
2018-03-18T15:37:42.966Z,55.80
2018-03-18T15:40:10.142Z,55.70
2018-03-18T15:42:37.414Z,56.50
2018-03-18T15:45:04.443Z,57.20
2018-03-18T15:47:31.489Z,57.50
2018-03-18T15:50:00.127Z,56.80
2018-03-18T15:52:27.558Z,57.60
2018-03-18T15:54:54.524Z,58.20
2018-03-18T15:57:21.569Z,57.80
2018-03-18T15:59:48.592Z,58.60
2018-03-18T16:02:15.663Z,59.00
2018-03-18T16:04:42.723Z,59.50
2018-03-18T16:07:09.784Z,59.70
2018-03-18T16:09:36.799Z,60.30
2018-03-18T16:12:04.729Z,60.80
2018-03-18T16:22:24.549Z,61.30
2018-03-18T16:27:31.072Z,62.80
2018-03-18T16:30:10.067Z,62.40
2018-03-18T16:32:37.092Z,62.10
2018-03-18T16:35:04.107Z,62.80
2018-03-18T16:37:31.177Z,62.80
2018-03-18T16:39:58.201Z,62.00
2018-03-18T16:42:25.241Z,62.40
2018-03-18T16:44:53.300Z,62.60
2018-03-18T16:47:20.378Z,62.50
2018-03-18T16:49:47.360Z,63.30
2018-03-18T16:52:15.427Z,63.20
2018-03-18T16:54:42.473Z,62.40
2018-03-18T16:57:10.026Z,63.80
2018-03-18T16:59:37.095Z,63.70
2018-03-18T17:02:04.109Z,63.90
2018-03-18T17:04:31.118Z,63.50
2018-03-18T17:06:58.192Z,64.70
2018-03-18T17:09:25.223Z,65.80
2018-03-18T17:11:52.329Z,65.90
2018-03-18T17:14:19.388Z,65.80
2018-03-18T17:16:46.420Z,65.10
2018-03-18T17:19:13.439Z,65.10
2018-03-18T17:21:40.539Z,64.50
2018-03-18T17:24:07.603Z,66.10
2018-03-18T17:26:36.508Z,65.90
2018-03-18T17:29:01.695Z,66.50
2018-03-18T17:31:28.733Z,66.30
2018-03-18T17:33:56.671Z,66.80
2018-03-18T17:36:23.742Z,67.00
2018-03-18T17:38:51.028Z,67.60
2018-03-18T17:41:18.098Z,67.00
2018-03-18T17:43:45.149Z,65.70
2018-03-18T17:46:23.931Z,64.80
2018-03-18T17:49:02.915Z,65.70
2018-03-18T17:51:41.667Z,66.90
2018-03-18T17:56:59.088Z,66.60
2018-03-18T17:59:26.162Z,67.20
2018-03-18T18:01:53.184Z,66.60
2018-03-18T18:04:20.310Z,67.60
2018-03-18T18:06:47.362Z,68.70
2018-03-18T18:09:14.399Z,68.30
2018-03-18T18:11:42.360Z,68.00
2018-03-18T18:14:09.428Z,67.40
2018-03-18T18:16:36.441Z,67.10
2018-03-18T18:19:03.459Z,67.90
2018-03-18T18:21:30.521Z,67.50
2018-03-18T18:23:57.545Z,68.10
2018-03-18T18:26:24.562Z,67.60
2018-03-18T18:28:51.636Z,67.00
2018-03-18T18:31:18.646Z,68.40
2018-03-18T18:33:45.660Z,68.90
2018-03-18T18:36:12.741Z,68.80
2018-03-18T18:38:39.758Z,69.40
2018-03-18T18:41:06.775Z,69.50
2018-03-18T18:43:33.842Z,69.10
2018-03-18T18:46:00.867Z,69.90
2018-03-18T18:48:27.874Z,69.70
2018-03-18T18:50:54.958Z,70.30
2018-03-18T18:53:21.965Z,70.10
2018-03-18T18:55:48.995Z,70.30
2018-03-18T18:58:16.111Z,71.80
2018-03-18T19:05:37.439Z,71.10
2018-03-18T19:08:04.456Z,71.40
2018-03-18T19:10:31.569Z,72.40
2018-03-18T19:12:58.620Z,71.50
2018-03-18T19:15:25.651Z,71.40
2018-03-18T19:17:53.926Z,71.40
2018-03-18T19:22:56.481Z,71.20
2018-03-18T19:25:23.562Z,71.80
2018-03-18T19:27:50.584Z,71.00
2018-03-18T19:30:17.601Z,71.60
2018-03-18T19:32:44.684Z,71.80
2018-03-18T19:35:14.470Z,73.30
2018-03-18T19:37:43.874Z,73.60
2018-03-18T19:40:11.374Z,73.00
2018-03-18T19:42:38.701Z,72.60
2018-03-18T19:45:05.726Z,72.90
2018-03-18T19:47:32.797Z,73.40
2018-03-18T19:49:59.862Z,73.20
2018-03-18T19:52:27.528Z,72.80
2018-03-18T19:54:54.588Z,73.10
2018-03-18T19:57:21.620Z,73.30
2018-03-18T19:59:48.784Z,72.90
2018-03-18T20:02:15.760Z,72.30
2018-03-18T20:04:42.785Z,71.90
2018-03-18T20:07:09.800Z,72.10
2018-03-18T20:09:36.858Z,72.00
2018-03-18T20:12:03.881Z,72.50
2018-03-18T20:14:31.869Z,73.40
2018-03-18T20:16:58.943Z,73.40
2018-03-18T20:19:26.097Z,74.40
2018-03-18T20:21:53.103Z,75.70
2018-03-18T20:24:20.190Z,75.70
2018-03-18T20:26:47.211Z,75.40
2018-03-18T20:29:14.229Z,74.60
2018-03-18T20:31:42.303Z,74.80
2018-03-18T20:34:09.346Z,74.30
2018-03-18T20:36:36.367Z,73.90
2018-03-18T20:41:43.923Z,75.30
2018-03-18T20:44:10.992Z,75.80
2018-03-18T20:46:37.999Z,75.90
2018-03-18T20:49:05.021Z,75.70
2018-03-18T20:51:32.098Z,75.30
2018-03-18T20:53:59.120Z,75.00
2018-03-18T20:58:53.297Z,74.30
2018-03-18T21:01:20.325Z,76.40
2018-03-18T21:03:47.354Z,77.50
2018-03-18T21:06:14.466Z,77.20
2018-03-18T21:08:41.449Z,77.20
2018-03-18T21:11:08.479Z,77.00
2018-03-18T21:13:35.558Z,77.60
2018-03-18T21:16:02.583Z,77.20
2018-03-18T21:18:29.612Z,77.20
2018-03-18T21:20:56.717Z,76.30
2018-03-18T21:23:23.769Z,76.40
2018-03-18T21:25:50.783Z,76.80
2018-03-18T21:28:17.882Z,76.20
2018-03-18T21:30:44.913Z,76.30
2018-03-18T21:33:11.947Z,75.40
2018-03-18T21:35:39.030Z,75.70
2018-03-18T21:38:06.088Z,75.60
2018-03-18T21:40:33.197Z,76.00
2018-03-18T21:43:00.253Z,76.10
2018-03-18T21:45:27.284Z,76.20
2018-03-18T21:47:54.300Z,75.20
2018-03-18T21:50:21.384Z,75.20
2018-03-18T21:55:15.494Z,75.70
2018-03-18T21:57:42.571Z,76.00
2018-03-18T22:02:49.085Z,77.40
2018-03-18T22:07:48.391Z,76.70
2018-03-18T22:10:15.463Z,76.80
2018-03-18T22:15:09.605Z,76.60
2018-03-18T22:17:36.684Z,76.20
2018-03-18T22:20:03.712Z,77.90
2018-03-18T22:22:30.744Z,77.00
2018-03-18T22:24:57.810Z,78.70
2018-03-18T22:27:24.834Z,78.10
2018-03-18T22:32:32.511Z,78.90
2018-03-18T22:34:59.540Z,78.20
2018-03-18T22:39:53.746Z,78.30
2018-03-18T22:42:21.108Z,77.30
2018-03-18T22:44:49.116Z,78.60
2018-03-18T22:47:16.198Z,78.50
2018-03-18T22:52:10.335Z,78.60
2018-03-18T22:54:37.411Z,79.40
2018-03-18T22:57:04.433Z,80.30
2018-03-18T22:59:31.444Z,80.30
2018-03-18T23:01:58.515Z,79.40
2018-03-18T23:04:25.569Z,79.70
2018-03-18T23:06:52.567Z,78.90
2018-03-18T23:09:19.639Z,79.90
2018-03-18T23:11:46.685Z,79.60
2018-03-18T23:14:14.016Z,80.20
2018-03-18T23:16:41.092Z,79.60
2018-03-18T23:21:47.134Z,78.80
2018-03-18T23:24:14.157Z,80.00
2018-03-18T23:26:41.183Z,79.70
2018-03-18T23:29:08.260Z,80.20
2018-03-18T23:31:35.266Z,79.90
2018-03-18T23:34:02.289Z,79.70
2018-03-18T23:36:29.405Z,79.90
2018-03-18T23:38:56.454Z,80.60
2018-03-18T23:41:23.477Z,81.30
2018-03-18T23:43:50.546Z,82.60
2018-03-18T23:46:17.561Z,83.70
2018-03-18T23:48:44.584Z,85.60
2018-03-18T23:51:11.637Z,87.00
2018-03-18T23:53:38.658Z,88.20
2018-03-18T23:56:05.689Z,88.80
2018-03-18T23:58:32.755Z,89.20
